South Reno (Wolf Run), Nevada Weather observations

Data are for observation ending at time listed.
 Day   Time    Ave.   Ave.  Ave.  Vector   Max.   Stn.    Total    Solar   Ave.  
  of    of     Air    Rel.  Wind   Wind    Wind   Baro.  Precip.   Rad.    Soil  
Year   Day     Temp.  Hum.  Speed  Dir.    Gust   Pres.                    Temp. 
2026   (PST)    F      %     mph   deg.    mph     mb.     in.     W/m2     F   
------------------------------------------------------------------------------
 128   10:20   71.3    16    1.9    16      6.5  99999.0    0.00       7    59.6
 128   10:30   71.8    17    1.8   337      5.3  99999.0    0.00       7    59.5
 128   10:40   73.5    18    0.7   356      4.8  99999.0    0.00       8    59.4
 128   10:50   73.9    16    1.6   359      6.2  99999.0    0.00       8    59.5
 128   11:00   74.0    15    2.6    90      6.6  99999.0    0.00       8    59.5
 128   11:10   75.2    16    1.6    48      6.0  99999.0    0.00       9    59.6
 128   11:20   74.1    12    2.9    44      5.2  99999.0    0.00       9    59.8
 128   11:30   74.1    13    1.4     4      6.3  99999.0    0.00       9    59.9
 128   11:40   75.2    12    2.4    14      5.3  99999.0    0.00       9    60.2
 128   11:50   75.4    13    0.4    54      2.9  99999.0    0.00       9    60.4
 128   12:00   75.7    14    3.3    81      7.4  99999.0    0.00       9    60.5
 128   12:10   74.8    14    1.3   331      6.9  99999.0    0.00       9    60.8
 128   12:20   76.8    14    1.1   325      7.1  99999.0    0.00       9    61.1
 128   12:30   77.4    13    1.2   345      6.1  99999.0    0.00       9    61.3
 128   12:40   77.2    13    2.0    24      6.6  99999.0    0.00       9    61.5
 128   12:50   75.9    15    2.9   210      6.4  99999.0    0.00       9    61.9
 128   13:00   77.6    13    2.9    17      6.5  99999.0    0.00       9    62.2
 128   13:10   77.7    13    1.6   327      6.1  99999.0    0.00       9    62.4
 128   13:20   79.0    13    0.9    25      4.4  99999.0    0.00       9    62.6
 128   13:30   78.9    13    2.3    73      7.5  99999.0    0.00       9    62.9
 128   13:40   80.2    13    3.0    37      6.6  99999.0    0.00       9    63.2
 128   13:50   80.2    12    2.6    35      6.7  99999.0    0.00       9    63.5
 128   14:00   80.4    16    1.8     3      7.1  99999.0    0.00       9    63.9
 128   14:10   81.1    13    2.2    41      5.6  99999.0    0.00       9    64.2
 128   14:20   81.0    14    2.3    48      6.7  99999.0    0.00       9    64.6
 128   14:30   80.5    13    3.2    51      7.8  99999.0    0.00       9    65.0
 128   14:40   79.9    12    3.2    64      9.0  99999.0    0.00       9    65.3
 128   14:50   80.9    13    1.9    25      6.8  99999.0    0.00       9    65.6
 128   15:00   81.6    14    1.4   128      5.3  99999.0    0.00       9    65.8
 128   15:10   82.7    13    1.6   190      4.2  99999.0    0.00       9    66.1
 128   15:20   82.2    16    1.2   248      5.9  99999.0    0.00       9    66.3
 128   15:30   80.2    13    1.5   259      5.8  99999.0    0.00       9    66.6
 128   15:40   82.0    12    1.6   144      4.3  99999.0    0.00       9    66.8
 128   15:50   80.3    12    2.2   310      7.7  99999.0    0.00       8    67.0
 128   16:00   81.4    12    1.9     2      7.2  99999.0    0.00       8    67.2
 128   16:10   82.0    12    2.6   356      7.2  99999.0    0.00       8    67.4
 128   16:20   80.2    12    4.3   339     10.2  99999.0    0.00       7    67.6
 128   16:30   79.2    12    4.6   356     10.2  99999.0    0.00       7    67.7
 128   16:40   79.6    13    3.1   342      7.8  99999.0    0.00       7    67.9
 128   16:50   79.6    13    2.6   345      8.6  99999.0    0.00       7    68.1
 128   17:00   78.8    13    3.7   343     11.2  99999.0    0.00       7    68.2
 128   17:10   77.4    14    2.6   338      8.9  99999.0    0.00       6    68.4
 128   17:20   76.6    14    3.5   331      9.4  99999.0    0.00       5    68.5
 128   17:30   77.3    14    1.7   324      9.1  99999.0    0.00       5    68.6
 128   17:40   77.5    14    3.6   336     11.2  99999.0    0.00       5    68.6
 128   17:50   77.6    16    1.3   322      5.8  99999.0    0.00       6    68.7
 128   18:00   77.2    17    0.6   312      5.8  99999.0    0.00       5    68.8
 128   18:10   74.7    20    0.2   300      3.4  99999.0    0.00       5    68.8
 128   18:20   71.5    22    0.2   285      3.6  99999.0    0.00       4    68.8
 128   18:30   70.3    21    0.6   318      5.1  99999.0    0.00       3    68.8
 128   18:40   69.0    24    0.0     0      0.0  99999.0    0.00       3    68.8
 128   18:50   67.5    24    0.0   304      0.4  99999.0    0.00       3    68.8
 128   19:00   66.6    24    0.0   292      1.6  99999.0    0.00       3    68.7
 128   19:10   65.8    26    0.2   283      3.7  99999.0    0.00       2    68.7
 128   19:20   65.3    28    0.0   234      1.7  99999.0    0.00       1    68.6
 128   19:30   64.6    32    0.3   259      3.7  99999.0    0.00       0    68.6
 128   19:40   63.2    37    0.3   259      7.6  99999.0    0.00       0    68.5
 128   19:50   62.3    40    0.2   256      3.7  99999.0    0.00       0    68.5
 128   20:00   60.7    42    0.2   252      1.5  99999.0    0.00       0    68.5
 128   20:10   60.5    40    1.3    94      5.6  99999.0    0.00       0    68.3
 128   20:20   60.4    48    0.7   172      3.9  99999.0    0.00       0    67.8
 128   20:30   59.7    40    2.5   232      4.9  99999.0    0.00       0    66.2
 128   20:40   58.7    40    3.7   240      6.0  99999.0    0.00       0    66.1
 128   20:50   58.7    40    1.8   231      4.2  99999.0    0.00       0    66.0
 128   21:00   59.6    38    1.9   234      4.7  99999.0    0.00       1    65.9
 128   21:10   58.9    40    1.5   238      3.9  99999.0    0.00       1    65.9
 128   21:20   58.6    38    1.1   244      4.2  99999.0    0.00       1    65.9
 128   21:30   57.8    39    0.8   244      2.9  99999.0    0.00       1    65.9
 128   21:40   58.1    38    2.0   238      4.2  99999.0    0.00       0    66.1
 128   21:50   58.5    37    0.1   253      2.3  99999.0    0.00       1    66.1
 128   22:00   57.3    39    1.6   246      3.7  99999.0    0.00       1    66.1
 128   22:10   56.6    41    1.2   244      3.4  99999.0    0.00       1    66.2
 128   22:20   55.7    44    1.4   243      3.4  99999.0    0.00       1    66.1
 128   22:30   54.2    49    1.9   240      4.3  99999.0    0.00       1    66.1
 128   22:40   54.9    48    4.3   242      6.1  99999.0    0.00       0    66.0
 128   22:50   56.0    45    5.1   236      6.5  99999.0    0.00       0    65.9
 128   23:00   56.6    41    4.5   238      6.5  99999.0    0.00       0    65.8
 128   23:10   56.5    42    4.2   238      6.1  99999.0    0.00       0    65.7
 128   23:20   55.8    44    3.8   236      6.3  99999.0    0.00       0    65.6
 128   23:30   55.9    44    2.4   241      5.0  99999.0    0.00       0    65.5
 128   23:40   54.1    48    1.5   243      3.4  99999.0    0.00       0    65.5
 128   23:50   53.2    52    1.1   244      3.4  99999.0    0.00       0    65.4
 129    0:00   53.1    52    1.0   242      3.3  99999.0    0.00       0    65.3
 129    0:10   53.2    51    2.1   242      3.9  99999.0    0.00       0    65.2
 129    0:20   52.9    52    1.3   239      3.3  99999.0    0.00       0    65.1
 129    0:30   52.9    52    2.1   240      3.5  99999.0    0.00       0    65.0
 129    0:40   52.7    53    1.3   241      3.2  99999.0    0.00       0    65.0
 129    0:50   52.9    52    2.2   244      3.9  99999.0    0.00       0    64.9
 129    1:00   52.9    52    2.5   235      4.5  99999.0    0.00       0    64.8
 129    1:10   52.5    53    2.4   243      3.9  99999.0    0.00       0    64.7
 129    1:20   52.2    53    3.7   237      5.0  99999.0    0.00       0    64.6
 129    1:30   52.2    53    2.8   236      4.4  99999.0    0.00       0    64.5
 129    1:40   52.0    54    3.0   239      4.9  99999.0    0.00       0    64.4
 129    1:50   51.4    56    2.5   240      4.1  99999.0    0.00       0    64.4
 129    2:00   51.9    54    3.0   237      4.9  99999.0    0.00       0    64.3
 129    2:10   51.8    54    3.0   240      4.7  99999.0    0.00       0    64.2
 129    2:20   51.9    54    2.6   241      4.5  99999.0    0.00       0    64.1
 129    2:30   51.5    55    2.1   242      4.2  99999.0    0.00       0    64.0
 129    2:40   51.0    55    2.8   238      4.5  99999.0    0.00       0    64.0
 129    2:50   51.6    53    2.8   240      5.0  99999.0    0.00       0    63.9
 129    3:00   51.5    52    3.6   237      5.9  99999.0    0.00       0    63.8
 129    3:10   52.4    50    4.4   237      5.8  99999.0    0.00       0    63.7
 129    3:20   52.0    51    3.6   237      5.3  99999.0    0.00       0    63.6
 129    3:30   52.1    50    4.3   238      6.2  99999.0    0.00       0    63.6
 129    3:40   51.9    51    3.1   241      4.5  99999.0    0.00       0    63.5
 129    3:50   50.0    56    1.8   245      2.9  99999.0    0.00       0    63.4
 129    4:00   49.8    55    2.6   236      4.5  99999.0    0.00       0    63.4
 129    4:10   50.7    52    2.3   234      3.9  99999.0    0.00       0    63.3
 129    4:20   50.6    51    1.7   239      4.2  99999.0    0.00       0    63.2
 129    4:30   50.3    50    2.1   243      3.9  99999.0    0.00       0    63.1
 129    4:40   50.4    50    2.1   242      3.8  99999.0    0.00       1    63.1
 129    4:50   50.2    49    2.1   241      4.2  99999.0    0.00       2    63.0
 129    5:00   49.5    50    0.9   245      2.9  99999.0    0.00       3    63.0
 129    5:10   49.5    49    0.3   247      3.0  99999.0    0.00       3    62.9
 129    5:20   50.4    49    0.5   239      2.3  99999.0    0.00       3    62.8
 129    5:30   52.0    50    0.0   244      1.2  99999.0    0.00       3    62.7
 129    5:40   53.5    48    0.1   303      1.4  99999.0    0.00       3    62.7
 129    5:50   55.6    47    0.0    84      1.4  99999.0    0.00       4    62.5
 129    6:00   57.9    45    1.0    58      2.4  99999.0    0.00       4    62.4
 129    6:10   58.5    46    0.4    52      3.1  99999.0    0.00       4    62.3
 129    6:20   61.7    40    0.0     0      0.0  99999.0    0.00       4    62.3
 129    6:30   61.8    40    0.0    37      0.9  99999.0    0.00       4    62.2
 129    6:40   62.7    40    0.0     0      0.0  99999.0    0.00       4    62.1
 129    6:50   62.5    40    0.0   342      0.9  99999.0    0.00       4    62.0
 129    7:00   61.1    44    0.4   351      1.5  99999.0    0.00       4    62.0
 129    7:10   61.7    45    1.1    91      4.7  99999.0    0.00       4    61.9
 129    7:20   62.2    43    1.8    88      5.0  99999.0    0.00       4    61.9
 129    7:30   62.8    41    0.6    54      3.4  99999.0    0.00       5    61.8
 129    7:40   63.7    38    0.6    46      2.2  99999.0    0.00       5    61.8
 129    7:50   64.0    37    0.6    16      2.1  99999.0    0.00       5    61.7
 129    8:00   64.8    37    0.3   348      1.8  99999.0    0.00       6    61.7
 129    8:10   66.3    32    1.6    35      4.4  99999.0    0.00       6    61.6
 129    8:20   67.2    32    1.0     4      4.0  99999.0    0.00       7    61.6
 129    8:30   67.2    30    1.5    56      4.4  99999.0    0.00       7    61.5
 129    8:40   67.8    30    1.9    24      5.6  99999.0    0.00       7    61.4
 129    8:50   68.3    27    0.9     4      3.8  99999.0    0.00       7    61.4
 129    9:00   69.7    26    1.2    38      5.3  99999.0    0.00       7    61.4
 129    9:10   69.5    26    1.1    16      4.4  99999.0    0.00       7    61.3
 129    9:20   70.0    26    0.7     5      3.5  99999.0    0.00       7    61.3
 129    9:30   70.8    25    1.5     2      5.2  99999.0    0.00       7    61.2
 129    9:40   72.3    23    0.9    27      5.1  99999.0    0.00       8    61.2
 129    9:50   72.0    23    1.3   340      5.7  99999.0    0.00       7    61.1
 129   10:00   70.9    22    2.7    14      5.5  99999.0    0.00       7    61.2
 129   10:10   72.6    22    1.5    44      5.3  99999.0    0.00       8    61.2

Return to South Reno, Nevada graphs page.


Western Regional Climate Center,wrcc@dri.edu